METAR Data
IDs: Format: Raw Decoded Include TAF

Data at: 2031 UTC 23 Oct 2021

EKEB 232020Z AUTO 16007KT 9999 BKN035/// OVC054/// 08/07 Q1025